sensor_id;sensor_type;location;lat;lon;timestamp;pressure;altitude;pressure_sealevel;temperature;humidity
51293;BME280;37377;45.186;9.778;2023-12-29T00:01:59;102087.00;;;10.23;73.04
51293;BME280;37377;45.186;9.778;2023-12-29T00:04:26;102081.00;;;10.20;72.92
51293;BME280;37377;45.186;9.778;2023-12-29T00:06:53;102093.56;;;10.14;73.52
51293;BME280;37377;45.186;9.778;2023-12-29T00:09:58;102090.13;;;10.13;73.09
51293;BME280;37377;45.186;9.778;2023-12-29T00:12:25;102088.19;;;10.17;73.09
51293;BME280;37377;45.186;9.778;2023-12-29T00:14:52;102091.13;;;10.11;73.71
51293;BME280;37377;45.186;9.778;2023-12-29T00:17:46;102093.84;;;10.09;73.69
51293;BME280;37377;45.186;9.778;2023-12-29T00:20:13;102093.25;;;10.20;73.26
51293;BME280;37377;45.186;9.778;2023-12-29T00:22:59;102088.34;;;10.14;73.54
51293;BME280;37377;45.186;9.778;2023-12-29T00:25:36;102086.75;;;10.11;73.38
51293;BME280;37377;45.186;9.778;2023-12-29T00:28:13;102084.03;;;10.13;73.61
51293;BME280;37377;45.186;9.778;2023-12-29T00:31:00;102076.28;;;10.11;73.78
51293;BME280;37377;45.186;9.778;2023-12-29T00:33:29;102070.09;;;9.97;74.40
51293;BME280;37377;45.186;9.778;2023-12-29T00:35:58;102062.84;;;10.02;74.11
51293;BME280;37377;45.186;9.778;2023-12-29T00:38:28;102069.09;;;9.83;74.76
51293;BME280;37377;45.186;9.778;2023-12-29T00:40:55;102069.44;;;9.93;74.37
51293;BME280;37377;45.186;9.778;2023-12-29T00:43:22;102065.78;;;10.11;73.75
51293;BME280;37377;45.186;9.778;2023-12-29T00:45:50;102062.06;;;10.15;73.70
51293;BME280;37377;45.186;9.778;2023-12-29T00:48:17;102062.66;;;10.05;74.10
51293;BME280;37377;45.186;9.778;2023-12-29T00:50:45;102063.00;;;10.14;73.69
51293;BME280;37377;45.186;9.778;2023-12-29T00:53:12;102067.25;;;10.01;74.45
51293;BME280;37377;45.186;9.778;2023-12-29T00:55:39;102070.72;;;10.02;74.75
51293;BME280;37377;45.186;9.778;2023-12-29T00:58:05;102060.66;;;10.10;74.55
51293;BME280;37377;45.186;9.778;2023-12-29T01:00:32;102053.22;;;10.02;75.00
51293;BME280;37377;45.186;9.778;2023-12-29T01:03:18;102067.06;;;9.88;75.20
51293;BME280;37377;45.186;9.778;2023-12-29T01:06:08;102061.69;;;10.07;74.80
51293;BME280;37377;45.186;9.778;2023-12-29T01:09:06;102057.09;;;10.11;74.80
51293;BME280;37377;45.186;9.778;2023-12-29T01:11:35;102058.38;;;10.04;74.88
51293;BME280;37377;45.186;9.778;2023-12-29T01:14:02;102055.56;;;10.07;74.97
51293;BME280;37377;45.186;9.778;2023-12-29T01:16:29;102054.31;;;9.98;75.20
51293;BME280;37377;45.186;9.778;2023-12-29T01:19:19;102065.28;;;9.89;75.70
51293;BME280;37377;45.186;9.778;2023-12-29T01:22:14;102055.09;;;10.00;75.22
51293;BME280;37377;45.186;9.778;2023-12-29T01:24:40;102056.78;;;10.01;74.97
51293;BME280;37377;45.186;9.778;2023-12-29T01:27:12;102062.44;;;9.93;75.00
51293;BME280;37377;45.186;9.778;2023-12-29T01:29:39;102061.25;;;9.99;75.31
51293;BME280;37377;45.186;9.778;2023-12-29T01:32:17;102058.97;;;10.09;74.54
51293;BME280;37377;45.186;9.778;2023-12-29T01:34:47;102060.47;;;10.13;74.62
51293;BME280;37377;45.186;9.778;2023-12-29T01:37:45;102053.47;;;9.98;75.21
51293;BME280;37377;45.186;9.778;2023-12-29T01:40:12;102055.94;;;9.85;75.43
51293;BME280;37377;45.186;9.778;2023-12-29T01:42:40;102055.09;;;10.00;75.03
51293;BME280;37377;45.186;9.778;2023-12-29T01:45:20;102062.16;;;9.98;75.18
51293;BME280;37377;45.186;9.778;2023-12-29T01:47:55;102063.69;;;10.02;75.04
51293;BME280;37377;45.186;9.778;2023-12-29T01:50:22;102064.13;;;9.94;75.04
51293;BME280;37377;45.186;9.778;2023-12-29T01:52:50;102055.94;;;10.01;74.62
51293;BME280;37377;45.186;9.778;2023-12-29T01:55:20;102062.00;;;9.85;74.86
51293;BME280;37377;45.186;9.778;2023-12-29T01:58:24;102062.34;;;10.11;74.07
51293;BME280;37377;45.186;9.778;2023-12-29T02:01:04;102055.31;;;10.11;74.25
51293;BME280;37377;45.186;9.778;2023-12-29T02:03:34;102052.03;;;10.08;74.51
51293;BME280;37377;45.186;9.778;2023-12-29T02:06:04;102045.19;;;10.05;74.69
51293;BME280;37377;45.186;9.778;2023-12-29T02:08:32;102049.06;;;9.98;74.46
51293;BME280;37377;45.186;9.778;2023-12-29T02:10:59;102055.25;;;9.97;74.91
51293;BME280;37377;45.186;9.778;2023-12-29T02:13:26;102048.16;;;9.99;74.66
51293;BME280;37377;45.186;9.778;2023-12-29T02:15:54;102042.44;;;9.92;75.80
51293;BME280;37377;45.186;9.778;2023-12-29T02:18:26;102033.97;;;10.03;74.84
51293;BME280;37377;45.186;9.778;2023-12-29T02:20:57;102031.00;;;10.09;74.63
51293;BME280;37377;45.186;9.778;2023-12-29T02:23:26;102028.13;;;10.14;74.09
51293;BME280;37377;45.186;9.778;2023-12-29T02:26:15;102016.06;;;10.11;74.14
51293;BME280;37377;45.186;9.778;2023-12-29T02:29:27;102001.69;;;10.18;73.71
51293;BME280;37377;45.186;9.778;2023-12-29T02:32:09;102005.06;;;10.20;73.70
51293;BME280;37377;45.186;9.778;2023-12-29T02:34:40;102003.22;;;10.23;73.63
51293;BME280;37377;45.186;9.778;2023-12-29T02:37:12;102003.56;;;10.16;73.56
51293;BME280;37377;45.186;9.778;2023-12-29T02:40:30;101991.56;;;10.12;73.48
51293;BME280;37377;45.186;9.778;2023-12-29T02:42:57;101995.09;;;10.11;73.47
51293;BME280;37377;45.186;9.778;2023-12-29T02:45:30;101991.06;;;10.06;73.52
51293;BME280;37377;45.186;9.778;2023-12-29T02:47:57;101982.75;;;10.13;73.23
51293;BME280;37377;45.186;9.778;2023-12-29T02:50:24;101991.38;;;10.15;73.14
51293;BME280;37377;45.186;9.778;2023-12-29T02:52:52;101985.97;;;10.18;72.97
51293;BME280;37377;45.186;9.778;2023-12-29T02:55:22;101992.91;;;10.19;73.06
51293;BME280;37377;45.186;9.778;2023-12-29T02:57:48;101986.72;;;9.90;73.57
51293;BME280;37377;45.186;9.778;2023-12-29T03:00:15;101978.06;;;10.04;73.65
51293;BME280;37377;45.186;9.778;2023-12-29T03:03:10;101966.00;;;10.02;73.76
51293;BME280;37377;45.186;9.778;2023-12-29T03:05:37;101965.69;;;9.92;74.12
51293;BME280;37377;45.186;9.778;2023-12-29T03:08:59;101964.94;;;9.74;74.65
51293;BME280;37377;45.186;9.778;2023-12-29T03:11:26;101968.13;;;9.95;74.18
51293;BME280;37377;45.186;9.778;2023-12-29T03:13:53;101974.56;;;9.89;73.90
51293;BME280;37377;45.186;9.778;2023-12-29T03:16:20;101971.97;;;10.04;73.25
51293;BME280;37377;45.186;9.778;2023-12-29T03:18:47;101967.19;;;9.96;73.66
51293;BME280;37377;45.186;9.778;2023-12-29T03:21:14;101977.66;;;9.96;73.70
51293;BME280;37377;45.186;9.778;2023-12-29T03:24:05;101973.16;;;9.98;73.47
51293;BME280;37377;45.186;9.778;2023-12-29T03:26:31;101981.78;;;10.00;73.50
51293;BME280;37377;45.186;9.778;2023-12-29T03:28:58;101968.03;;;9.97;73.20
51293;BME280;37377;45.186;9.778;2023-12-29T03:31:25;101965.81;;;10.05;72.87
51293;BME280;37377;45.186;9.778;2023-12-29T03:33:52;101967.44;;;10.07;72.69
51293;BME280;37377;45.186;9.778;2023-12-29T03:36:19;101961.25;;;10.08;72.70
51293;BME280;37377;45.186;9.778;2023-12-29T03:38:46;101951.38;;;9.98;72.56
51293;BME280;37377;45.186;9.778;2023-12-29T03:41:13;101947.78;;;10.00;72.45
51293;BME280;37377;45.186;9.778;2023-12-29T03:43:40;101944.88;;;10.05;72.21
51293;BME280;37377;45.186;9.778;2023-12-29T03:46:20;101946.16;;;9.98;72.03
51293;BME280;37377;45.186;9.778;2023-12-29T03:48:48;101947.50;;;10.05;72.36
51293;BME280;37377;45.186;9.778;2023-12-29T03:51:15;101934.50;;;10.03;71.78
51293;BME280;37377;45.186;9.778;2023-12-29T03:53:43;101938.47;;;9.94;72.20
51293;BME280;37377;45.186;9.778;2023-12-29T03:56:15;101934.84;;;9.97;71.83
51293;BME280;37377;45.186;9.778;2023-12-29T03:58:46;101928.41;;;10.03;71.88
51293;BME280;37377;45.186;9.778;2023-12-29T04:01:14;101918.53;;;10.08;71.67
51293;BME280;37377;45.186;9.778;2023-12-29T04:03:42;101920.66;;;10.01;72.07
51293;BME280;37377;45.186;9.778;2023-12-29T04:06:09;101924.88;;;10.04;72.16
51293;BME280;37377;45.186;9.778;2023-12-29T04:08:37;101922.84;;;10.09;72.28
51293;BME280;37377;45.186;9.778;2023-12-29T04:11:05;101922.34;;;10.02;72.15
51293;BME280;37377;45.186;9.778;2023-12-29T04:13:32;101920.81;;;9.98;72.34
51293;BME280;37377;45.186;9.778;2023-12-29T04:16:00;101925.69;;;10.04;72.09
51293;BME280;37377;45.186;9.778;2023-12-29T04:18:28;101923.44;;;9.98;72.45
51293;BME280;37377;45.186;9.778;2023-12-29T04:20:55;101917.00;;;10.04;72.43
51293;BME280;37377;45.186;9.778;2023-12-29T04:23:22;101919.63;;;10.04;72.67
51293;BME280;37377;45.186;9.778;2023-12-29T04:25:50;101913.19;;;10.09;72.33
51293;BME280;37377;45.186;9.778;2023-12-29T04:28:16;101917.22;;;10.15;71.96
51293;BME280;37377;45.186;9.778;2023-12-29T04:30:43;101914.34;;;10.19;72.00
51293;BME280;37377;45.186;9.778;2023-12-29T04:33:10;101910.97;;;10.17;72.15
51293;BME280;37377;45.186;9.778;2023-12-29T04:35:37;101915.44;;;10.15;72.02
51293;BME280;37377;45.186;9.778;2023-12-29T04:38:04;101907.34;;;9.90;73.06
51293;BME280;37377;45.186;9.778;2023-12-29T04:40:31;101908.41;;;10.02;72.80
51293;BME280;37377;45.186;9.778;2023-12-29T04:42:57;101906.44;;;10.05;72.64
51293;BME280;37377;45.186;9.778;2023-12-29T04:45:24;101907.47;;;10.03;72.89
51293;BME280;37377;45.186;9.778;2023-12-29T04:47:51;101913.94;;;10.11;72.95
51293;BME280;37377;45.186;9.778;2023-12-29T04:50:18;101903.03;;;10.19;72.48
51293;BME280;37377;45.186;9.778;2023-12-29T04:52:45;101899.19;;;10.10;73.13
51293;BME280;37377;45.186;9.778;2023-12-29T04:55:12;101889.25;;;10.15;72.69
51293;BME280;37377;45.186;9.778;2023-12-29T04:57:39;101890.03;;;10.17;72.64
51293;BME280;37377;45.186;9.778;2023-12-29T05:00:07;101899.19;;;10.10;73.09
51293;BME280;37377;45.186;9.778;2023-12-29T05:02:34;101895.63;;;10.11;73.05
51293;BME280;37377;45.186;9.778;2023-12-29T05:05:01;101895.63;;;10.11;73.32
51293;BME280;37377;45.186;9.778;2023-12-29T05:07:28;101902.69;;;9.95;73.50
51293;BME280;37377;45.186;9.778;2023-12-29T05:09:55;101907.31;;;9.60;75.09
51293;BME280;37377;45.186;9.778;2023-12-29T05:12:22;101905.53;;;9.76;74.81
51293;BME280;37377;45.186;9.778;2023-12-29T05:14:49;101910.88;;;9.89;74.30
51293;BME280;37377;45.186;9.778;2023-12-29T05:17:16;101909.56;;;9.82;74.72
51293;BME280;37377;45.186;9.778;2023-12-29T05:19:42;101909.88;;;9.91;74.23
51293;BME280;37377;45.186;9.778;2023-12-29T05:22:09;101913.25;;;9.93;74.39
51293;BME280;37377;45.186;9.778;2023-12-29T05:24:39;101913.84;;;9.99;74.42
51293;BME280;37377;45.186;9.778;2023-12-29T05:27:06;101912.13;;;9.98;73.97
51293;BME280;37377;45.186;9.778;2023-12-29T05:29:33;101910.53;;;9.95;74.33
51293;BME280;37377;45.186;9.778;2023-12-29T05:31:59;101905.13;;;9.98;74.17
51293;BME280;37377;45.186;9.778;2023-12-29T05:34:28;101916.31;;;9.86;74.12
51293;BME280;37377;45.186;9.778;2023-12-29T05:36:55;101910.00;;;10.04;73.41
51293;BME280;37377;45.186;9.778;2023-12-29T05:39:22;101914.84;;;9.96;73.72
51293;BME280;37377;45.186;9.778;2023-12-29T05:41:49;101921.69;;;9.99;74.11
51293;BME280;37377;45.186;9.778;2023-12-29T05:44:16;101916.34;;;10.00;74.36
51293;BME280;37377;45.186;9.778;2023-12-29T05:46:46;101916.88;;;9.91;74.18
51293;BME280;37377;45.186;9.778;2023-12-29T05:49:13;101922.28;;;9.88;74.23
51293;BME280;37377;45.186;9.778;2023-12-29T05:51:40;101929.13;;;9.90;74.14
51293;BME280;37377;45.186;9.778;2023-12-29T05:54:07;101927.38;;;10.05;73.76
51293;BME280;37377;45.186;9.778;2023-12-29T05:56:34;101921.31;;;10.05;74.09
51293;BME280;37377;45.186;9.778;2023-12-29T05:59:00;101919.38;;;10.08;73.30
51293;BME280;37377;45.186;9.778;2023-12-29T06:01:27;101923.53;;;9.97;73.58
51293;BME280;37377;45.186;9.778;2023-12-29T06:03:54;101922.16;;;10.05;73.52
51293;BME280;37377;45.186;9.778;2023-12-29T06:06:21;101921.06;;;10.09;73.47
51293;BME280;37377;45.186;9.778;2023-12-29T06:08:48;101919.19;;;10.11;73.42
51293;BME280;37377;45.186;9.778;2023-12-29T06:11:15;101932.16;;;9.99;73.37
51293;BME280;37377;45.186;9.778;2023-12-29T06:13:43;101925.44;;;10.09;73.30
51293;BME280;37377;45.186;9.778;2023-12-29T06:16:09;101927.47;;;10.04;73.87
51293;BME280;37377;45.186;9.778;2023-12-29T06:18:36;101928.63;;;9.84;73.85
51293;BME280;37377;45.186;9.778;2023-12-29T06:21:04;101930.44;;;9.98;73.65
51293;BME280;37377;45.186;9.778;2023-12-29T06:23:33;101923.44;;;9.98;73.46
51293;BME280;37377;45.186;9.778;2023-12-29T06:26:00;101923.19;;;10.03;73.21
51293;BME280;37377;45.186;9.778;2023-12-29T06:28:27;101931.13;;;10.01;73.11
51293;BME280;37377;45.186;9.778;2023-12-29T06:30:54;101917.41;;;10.12;72.45
51293;BME280;37377;45.186;9.778;2023-12-29T06:33:21;101917.91;;;10.18;72.30
51293;BME280;37377;45.186;9.778;2023-12-29T06:35:50;101920.13;;;10.10;72.50
51293;BME280;37377;45.186;9.778;2023-12-29T06:38:16;101921.47;;;10.17;72.51
51293;BME280;37377;45.186;9.778;2023-12-29T06:40:45;101922.84;;;10.09;72.56
51293;BME280;37377;45.186;9.778;2023-12-29T06:43:12;101920.97;;;10.11;72.62
51293;BME280;37377;45.186;9.778;2023-12-29T06:45:39;101923.22;;;10.17;72.64
51293;BME280;37377;45.186;9.778;2023-12-29T06:48:06;101930.00;;;10.05;72.48
51293;BME280;37377;45.186;9.778;2023-12-29T06:50:33;101927.03;;;10.11;72.02
51293;BME280;37377;45.186;9.778;2023-12-29T06:53:03;101919.44;;;10.07;72.58
51293;BME280;37377;45.186;9.778;2023-12-29T06:55:29;101923.00;;;10.06;72.40
51293;BME280;37377;45.186;9.778;2023-12-29T06:57:56;101923.50;;;10.12;72.26
51293;BME280;37377;45.186;9.778;2023-12-29T07:00:24;101922.44;;;10.15;72.28
51293;BME280;37377;45.186;9.778;2023-12-29T07:02:51;101930.19;;;10.02;72.71
51293;BME280;37377;45.186;9.778;2023-12-29T07:05:18;101927.97;;;10.10;72.28
51293;BME280;37377;45.186;9.778;2023-12-29T07:07:45;101925.06;;;10.01;72.31
51293;BME280;37377;45.186;9.778;2023-12-29T07:10:12;101920.13;;;10.10;72.02
51293;BME280;37377;45.186;9.778;2023-12-29T07:12:40;101923.28;;;10.15;71.78
51293;BME280;37377;45.186;9.778;2023-12-29T07:15:07;101926.94;;;10.13;72.03
51293;BME280;37377;45.186;9.778;2023-12-29T07:17:35;101928.22;;;10.06;72.04
51293;BME280;37377;45.186;9.778;2023-12-29T07:20:02;101929.25;;;10.03;72.47
51293;BME280;37377;45.186;9.778;2023-12-29T07:22:29;101926.06;;;9.98;71.97
51293;BME280;37377;45.186;9.778;2023-12-29T07:24:57;101936.91;;;9.92;72.06
51293;BME280;37377;45.186;9.778;2023-12-29T07:27:24;101926.00;;;10.14;71.95
51293;BME280;37377;45.186;9.778;2023-12-29T07:29:50;101930.78;;;10.07;72.32
51293;BME280;37377;45.186;9.778;2023-12-29T07:32:17;101933.56;;;10.04;72.44
51293;BME280;37377;45.186;9.778;2023-12-29T07:34:44;101938.34;;;10.12;72.66
51293;BME280;37377;45.186;9.778;2023-12-29T07:37:11;101940.13;;;10.11;72.27
51293;BME280;37377;45.186;9.778;2023-12-29T07:39:38;101935.03;;;9.94;72.77
51293;BME280;37377;45.186;9.778;2023-12-29T07:42:05;101928.53;;;10.15;72.39
51293;BME280;37377;45.186;9.778;2023-12-29T07:44:32;101936.91;;;10.22;71.92
51293;BME280;37377;45.186;9.778;2023-12-29T07:46:59;101932.34;;;10.26;71.67
51293;BME280;37377;45.186;9.778;2023-12-29T07:49:26;101936.47;;;10.30;71.38
51293;BME280;37377;45.186;9.778;2023-12-29T07:51:53;101942.16;;;10.22;71.74
51293;BME280;37377;45.186;9.778;2023-12-29T07:54:20;101947.69;;;10.32;71.44
51293;BME280;37377;45.186;9.778;2023-12-29T07:56:47;101944.31;;;10.30;71.49
51293;BME280;37377;45.186;9.778;2023-12-29T07:59:13;101944.41;;;10.28;71.70
51293;BME280;37377;45.186;9.778;2023-12-29T08:01:40;101950.16;;;10.35;71.42
51293;BME280;37377;45.186;9.778;2023-12-29T08:04:07;101948.56;;;10.16;72.42
51293;BME280;37377;45.186;9.778;2023-12-29T08:06:37;101960.97;;;10.29;71.97
51293;BME280;37377;45.186;9.778;2023-12-29T08:09:05;101959.78;;;10.18;72.63
51293;BME280;37377;45.186;9.778;2023-12-29T08:11:33;101960.63;;;10.35;72.00
51293;BME280;37377;45.186;9.778;2023-12-29T08:14:01;101962.75;;;10.28;71.95
51293;BME280;37377;45.186;9.778;2023-12-29T08:16:28;101962.09;;;10.39;72.00
51293;BME280;37377;45.186;9.778;2023-12-29T08:18:54;101978.22;;;10.47;71.63
51293;BME280;37377;45.186;9.778;2023-12-29T08:21:21;101974.41;;;10.53;71.56
51293;BME280;37377;45.186;9.778;2023-12-29T08:23:49;101976.44;;;10.47;71.65
51293;BME280;37377;45.186;9.778;2023-12-29T08:26:16;101975.69;;;10.45;72.12
51293;BME280;37377;45.186;9.778;2023-12-29T08:28:43;101969.91;;;10.69;71.68
51293;BME280;37377;45.186;9.778;2023-12-29T08:31:10;101972.34;;;10.58;71.61
51293;BME280;37377;45.186;9.778;2023-12-29T08:33:37;101970.38;;;10.75;70.91
51293;BME280;37377;45.186;9.778;2023-12-29T08:36:04;101969.47;;;10.91;70.71
51293;BME280;37377;45.186;9.778;2023-12-29T08:38:31;101965.91;;;10.92;70.72
51293;BME280;37377;45.186;9.778;2023-12-29T08:40:59;101972.25;;;11.02;70.31
51293;BME280;37377;45.186;9.778;2023-12-29T08:43:26;101971.78;;;11.10;69.72
51293;BME280;37377;45.186;9.778;2023-12-29T08:45:53;101970.88;;;10.96;70.06
51293;BME280;37377;45.186;9.778;2023-12-29T08:48:21;101969.09;;;10.97;70.62
51293;BME280;37377;45.186;9.778;2023-12-29T08:50:49;101979.75;;;10.94;69.92
51293;BME280;37377;45.186;9.778;2023-12-29T08:53:16;101986.63;;;10.96;70.35
51293;BME280;37377;45.186;9.778;2023-12-29T08:55:44;101994.66;;;10.93;70.42
51293;BME280;37377;45.186;9.778;2023-12-29T08:58:12;101997.28;;;11.07;70.23
51293;BME280;37377;45.186;9.778;2023-12-29T09:00:39;102000.09;;;11.04;69.82
51293;BME280;37377;45.186;9.778;2023-12-29T09:03:08;101996.44;;;11.07;69.93
51293;BME280;37377;45.186;9.778;2023-12-29T09:05:35;101997.53;;;11.03;70.35
51293;BME280;37377;45.186;9.778;2023-12-29T09:08:02;101997.19;;;11.09;69.87
51293;BME280;37377;45.186;9.778;2023-12-29T09:10:29;101998.50;;;10.88;71.11
51293;BME280;37377;45.186;9.778;2023-12-29T09:12:56;101999.69;;;11.11;69.91
51293;BME280;37377;45.186;9.778;2023-12-29T09:15:23;101993.78;;;11.21;69.66
51293;BME280;37377;45.186;9.778;2023-12-29T09:17:49;101997.75;;;11.14;69.81
51293;BME280;37377;45.186;9.778;2023-12-29T09:20:17;101999.81;;;11.23;69.64
51293;BME280;37377;45.186;9.778;2023-12-29T09:22:44;101998.47;;;11.30;69.42
51293;BME280;37377;45.186;9.778;2023-12-29T09:25:10;102001.28;;;11.27;69.48
51293;BME280;37377;45.186;9.778;2023-12-29T09:27:37;102001.09;;;11.30;69.03
51293;BME280;37377;45.186;9.778;2023-12-29T09:30:05;102002.97;;;11.28;69.51
51293;BME280;37377;45.186;9.778;2023-12-29T09:32:32;102006.53;;;11.42;69.05
51293;BME280;37377;45.186;9.778;2023-12-29T09:34:59;102011.66;;;11.43;68.92
51293;BME280;37377;45.186;9.778;2023-12-29T09:37:26;102011.94;;;11.39;68.98
51293;BME280;37377;45.186;9.778;2023-12-29T09:39:53;102008.41;;;11.40;68.65
51293;BME280;37377;45.186;9.778;2023-12-29T09:42:20;102013.06;;;11.49;68.55
51293;BME280;37377;45.186;9.778;2023-12-29T09:44:51;102006.22;;;11.46;68.64
51293;BME280;37377;45.186;9.778;2023-12-29T09:47:23;102007.91;;;11.47;68.66
51293;BME280;37377;45.186;9.778;2023-12-29T09:49:54;102008.66;;;11.49;68.90
51293;BME280;37377;45.186;9.778;2023-12-29T09:52:22;102005.69;;;11.27;69.34
51293;BME280;37377;45.186;9.778;2023-12-29T09:54:52;102014.59;;;11.24;69.58
51293;BME280;37377;45.186;9.778;2023-12-29T09:57:19;102009.72;;;11.32;69.55
51293;BME280;37377;45.186;9.778;2023-12-29T09:59:49;102005.69;;;11.27;69.62
51293;BME280;37377;45.186;9.778;2023-12-29T10:02:20;101995.84;;;11.30;69.34
51293;BME280;37377;45.186;9.778;2023-12-29T10:04:49;102002.00;;;11.44;68.96
51293;BME280;37377;45.186;9.778;2023-12-29T10:07:26;102005.59;;;11.43;69.32
51293;BME280;37377;45.186;9.778;2023-12-29T10:09:55;101994.75;;;11.61;68.64
51293;BME280;37377;45.186;9.778;2023-12-29T10:12:24;101997.75;;;11.55;68.78
51293;BME280;37377;45.186;9.778;2023-12-29T10:15:11;101992.25;;;11.60;68.39
51293;BME280;37377;45.186;9.778;2023-12-29T10:23:11;101993.94;;;11.47;69.23
51293;BME280;37377;45.186;9.778;2023-12-29T10:25:40;101998.28;;;11.75;68.65
51293;BME280;37377;45.186;9.778;2023-12-29T10:28:09;102003.91;;;11.83;67.93
51293;BME280;37377;45.186;9.778;2023-12-29T10:30:36;102003.03;;;11.97;67.96
51293;BME280;37377;45.186;9.778;2023-12-29T10:33:07;102001.53;;;11.93;68.05
51293;BME280;37377;45.186;9.778;2023-12-29T10:35:36;101997.44;;;11.88;67.75
51293;BME280;37377;45.186;9.778;2023-12-29T10:38:12;102003.25;;;11.94;67.76
51293;BME280;37377;45.186;9.778;2023-12-29T10:40:40;101987.47;;;11.94;67.97
51293;BME280;37377;45.186;9.778;2023-12-29T10:43:08;101994.69;;;11.90;67.87
51293;BME280;37377;45.186;9.778;2023-12-29T10:45:36;101991.66;;;11.69;68.76
51293;BME280;37377;45.186;9.778;2023-12-29T10:48:04;101989.44;;;11.90;68.14
51293;BME280;37377;45.186;9.778;2023-12-29T10:50:42;101984.31;;;11.88;68.29
51293;BME280;37377;45.186;9.778;2023-12-29T10:53:11;101980.84;;;11.88;67.92
51293;BME280;37377;45.186;9.778;2023-12-29T10:55:39;101973.91;;;11.73;68.11
51293;BME280;37377;45.186;9.778;2023-12-29T10:58:06;101972.63;;;11.66;68.59
51293;BME280;37377;45.186;9.778;2023-12-29T11:00:33;101968.03;;;11.69;68.49
51293;BME280;37377;45.186;9.778;2023-12-29T11:03:00;101963.31;;;11.74;68.02
51293;BME280;37377;45.186;9.778;2023-12-29T11:05:28;101961.81;;;11.84;68.24
51293;BME280;37377;45.186;9.778;2023-12-29T11:07:55;101955.31;;;11.90;67.93
51293;BME280;37377;45.186;9.778;2023-12-29T11:10:22;101956.59;;;11.97;67.69
51293;BME280;37377;45.186;9.778;2023-12-29T11:12:49;101950.91;;;11.90;67.71
51293;BME280;37377;45.186;9.778;2023-12-29T11:15:17;101952.25;;;11.83;68.04
51293;BME280;37377;45.186;9.778;2023-12-29T11:17:44;101949.22;;;11.89;68.06
51293;BME280;37377;45.186;9.778;2023-12-29T11:20:16;101956.16;;;11.90;68.00
51293;BME280;37377;45.186;9.778;2023-12-29T11:22:46;101951.03;;;11.75;68.50
51293;BME280;37377;45.186;9.778;2023-12-29T11:25:14;101944.19;;;11.86;68.06
51293;BME280;37377;45.186;9.778;2023-12-29T11:27:42;101937.03;;;11.88;68.28
51293;BME280;37377;45.186;9.778;2023-12-29T11:30:11;101932.66;;;11.75;68.26
51293;BME280;37377;45.186;9.778;2023-12-29T11:35:19;101927.28;;;11.90;67.58
51293;BME280;37377;45.186;9.778;2023-12-29T11:37:58;101921.28;;;11.88;67.24
51293;BME280;37377;45.186;9.778;2023-12-29T11:43:08;101934.00;;;11.68;68.56
51293;BME280;37377;45.186;9.778;2023-12-29T11:45:38;101926.38;;;11.50;68.65
51293;BME280;37377;45.186;9.778;2023-12-29T11:48:06;101911.75;;;11.73;68.30
51293;BME280;37377;45.186;9.778;2023-12-29T11:50:35;101904.16;;;11.83;67.48
51293;BME280;37377;45.186;9.778;2023-12-29T11:53:04;101906.94;;;11.67;67.95
51293;BME280;37377;45.186;9.778;2023-12-29T11:55:36;101899.41;;;11.75;68.14
51293;BME280;37377;45.186;9.778;2023-12-29T11:58:25;101895.97;;;11.87;67.59
51293;BME280;37377;45.186;9.778;2023-12-29T12:00:55;101888.50;;;11.81;68.06
51293;BME280;37377;45.186;9.778;2023-12-29T12:03:26;101886.81;;;11.80;67.84
51293;BME280;37377;45.186;9.778;2023-12-29T12:05:55;101878.72;;;11.44;68.63
51293;BME280;37377;45.186;9.778;2023-12-29T12:08:35;101873.81;;;11.25;69.43
51293;BME280;37377;45.186;9.778;2023-12-29T12:13:58;101881.53;;;11.68;68.73
51293;BME280;37377;45.186;9.778;2023-12-29T12:19:13;101870.25;;;11.93;67.56
51293;BME280;37377;45.186;9.778;2023-12-29T12:21:40;101871.63;;;11.85;67.86
51293;BME280;37377;45.186;9.778;2023-12-29T12:24:08;101869.00;;;11.98;67.49
51293;BME280;37377;45.186;9.778;2023-12-29T12:26:40;101867.09;;;11.87;67.70
51293;BME280;37377;45.186;9.778;2023-12-29T12:29:07;101869.28;;;11.81;68.44
51293;BME280;37377;45.186;9.778;2023-12-29T12:32:00;101865.66;;;11.96;67.42
51293;BME280;37377;45.186;9.778;2023-12-29T12:34:36;101860.38;;;12.09;67.28
51293;BME280;37377;45.186;9.778;2023-12-29T12:37:04;101852.59;;;11.82;68.06
51293;BME280;37377;45.186;9.778;2023-12-29T12:39:41;101851.69;;;11.96;67.70
51293;BME280;37377;45.186;9.778;2023-12-29T12:42:09;101846.53;;;12.07;67.36
51293;BME280;37377;45.186;9.778;2023-12-29T12:44:39;101843.59;;;12.11;67.31
51293;BME280;37377;45.186;9.778;2023-12-29T12:47:34;101840.25;;;12.22;67.10
51293;BME280;37377;45.186;9.778;2023-12-29T12:50:30;101838.97;;;12.15;67.43
51293;BME280;37377;45.186;9.778;2023-12-29T12:52:57;101837.19;;;12.28;67.16
51293;BME280;37377;45.186;9.778;2023-12-29T12:55:32;101837.19;;;12.28;67.00
51293;BME280;37377;45.186;9.778;2023-12-29T12:58:01;101842.97;;;12.33;66.74
51293;BME280;37377;45.186;9.778;2023-12-29T13:00:29;101839.19;;;12.12;67.53
51293;BME280;37377;45.186;9.778;2023-12-29T13:02:56;101833.81;;;12.26;67.06
51293;BME280;37377;45.186;9.778;2023-12-29T13:05:23;101838.97;;;12.15;67.51
51293;BME280;37377;45.186;9.778;2023-12-29T13:07:54;101843.06;;;12.19;67.45
51293;BME280;37377;45.186;9.778;2023-12-29T13:10:22;101839.28;;;12.23;67.02
51293;BME280;37377;45.186;9.778;2023-12-29T13:12:53;101835.41;;;12.16;67.48
51293;BME280;37377;45.186;9.778;2023-12-29T13:15:22;101835.63;;;12.13;67.69
51293;BME280;37377;45.186;9.778;2023-12-29T13:17:52;101834.97;;;12.22;67.05
51293;BME280;37377;45.186;9.778;2023-12-29T13:20:20;101833.94;;;12.12;67.88
51293;BME280;37377;45.186;9.778;2023-12-29T13:22:49;101834.88;;;12.11;67.42
51293;BME280;37377;45.186;9.778;2023-12-29T13:25:24;101833.19;;;12.10;67.52